Thunder radar more information blitzortung!


Löydät sääaseman tiedot myös:

European Weather Network

Finland Weather Exchange

Weather Underground

AWEKAS



Weather Underground säähistoriasivu

Päivittäin yhteenveto Huhtikuu 25, 2017 Yksiköt:  Metriset    Englantilaiset   Molemmat
« Edellinen Päivä
Seuraava Päivä »
Päivittäin Viikoittain Kuukausittain Vuosittain Mukautettu
  Korkea: Matala: Keskiarvo:
Lämpötila: -17.8 °C -18.5 °C -17.1 °C
Kastepiste: -17.8 °C -19.1 °C -17.9 °C
Kosteus: Humidity % 67 % 89 %
Tuulen nopeus: 0 km/h 0 km/h 1.6 km/h
Tuulenpuuska: 0 km/h - -
Tuuli:- - ESE
Ilmanpaine: 0 hPa 33822.8 hPa -
Sade: 50.8 mm    
Historical Graphs
 
 
Taulukkotiedot Huhtikuu 25, 2017
Aika Lämpötila Kastepiste Ilmanpaine Tuuli Tuulen nopeus Tuulenpuuska Kosteus Sademäärä (tunneittain)
-17.8 °C -17.8 °C 0 hPa Calm     Humidity % 0 mm
00:00 -17.1 °C -17.9 °C 33992.1 hPa Calm     90 % 0 mm
00:15 -17.2 °C -17.9 °C 33981.9 hPa Calm     90 % 0 mm
00:30 -17.3 °C -18 °C 33981.9 hPa Calm     91 % 0 mm
00:45 -17.4 °C -18.1 °C 33981.9 hPa Calm     91 % 0 mm
01:00 -17.5 °C -18.1 °C 33981.9 hPa Calm     92 % 0 mm
01:15 -17.7 °C -18.4 °C 33971.7 hPa Calm     91 % 0 mm
01:30 -17.9 °C -18.6 °C 33971.7 hPa Calm     92 % 0 mm
01:45 -18.1 °C -18.7 °C 33958.2 hPa Calm     92 % 0 mm
02:00 -18.2 °C -18.7 °C 33958.2 hPa Calm     93 % 0 mm
02:15 -18.2 °C -18.7 °C 33958.2 hPa Calm     94 % 0 mm
02:30 -18.1 °C -18.6 °C 33948 hPa Calm     94 % 0 mm
02:45 -18.1 °C -18.5 °C 33948 hPa Calm   5.1 km/h 94 % 0 mm
03:00 -18.1 °C -18.6 °C 33948 hPa Calm     93 % 0 mm
03:15 -18.1 °C -18.6 °C 33948 hPa Calm     93 % 0 mm
03:30 -18.2 °C -18.8 °C 33948 hPa Calm   2.6 km/h 92 % 0 mm
03:45 -18.3 °C -18.9 °C 33937.9 hPa Calm     92 % 0 mm
04:00 -18.3 °C -18.8 °C 33937.9 hPa Calm     93 % 0 mm
04:15 -18.4 °C -18.9 °C 33937.9 hPa Calm     93 % 0 mm
04:30 -18.4 °C -18.9 °C 33924.3 hPa Calm     93 % 0 mm
04:45 -18.4 °C -19 °C 33924.3 hPa Calm     93 % 0 mm
05:00 -18.5 °C -19.1 °C 33924.3 hPa Calm     93 % 0 mm
05:15 -18.4 °C -18.9 °C 33924.3 hPa Calm   7.7 km/h 94 % 0 mm
05:30 -18.4 °C -18.9 °C 33924.3 hPa Calm   7.7 km/h 94 % 0 mm
05:45 -18.4 °C -18.9 °C 33924.3 hPa Calm   2.6 km/h 94 % 0 mm
06:15 -18.3 °C -18.8 °C 33914.2 hPa Calm   5.1 km/h 94 % 0 mm
06:30 -18.2 °C -18.7 °C 33914.2 hPa Calm   7.7 km/h 94 % 0 mm
06:45 -18.2 °C -18.6 °C 33914.2 hPa Calm   10.3 km/h 94 % 0 mm
07:00 -18 °C -18.5 °C 33914.2 hPa Calm   12.9 km/h 94 % 0 mm
07:15 -17.9 °C -18.3 °C 33900.6 hPa Calm   10.3 km/h 94 % 0 mm
07:30 -17.8 °C -18.3 °C 33900.6 hPa Calm   2.6 km/h 94 % 0 mm
07:45 -17.7 °C -18.2 °C 33900.6 hPa Calm   10.3 km/h 93 % 0 mm
08:00 -17.5 °C -18.1 °C 33900.6 hPa Calm   10.3 km/h 93 % 0 mm
08:15 -17.4 °C -18 °C 33890.5 hPa ESE 2.6 km/h 12.9 km/h 92 % 0 mm
08:30 -17.1 °C -17.9 °C 33890.5 hPa North 2.6 km/h 10.3 km/h 90 % 0 mm
08:45 -16.9 °C -17.9 °C 33890.5 hPa NE 2.6 km/h 15.6 km/h 88 % 0 mm
09:00 -16.7 °C -17.9 °C 33880.3 hPa South 2.6 km/h 12.9 km/h 86 % 0 mm
09:15 -16.5 °C -17.8 °C 33880.3 hPa NW 2.6 km/h 10.3 km/h 84 % 0 mm
09:30 -16.2 °C -17.9 °C 33880.3 hPa East 5.1 km/h 15.6 km/h 80 % 0 mm
09:45 -15.8 °C -17.9 °C 33866.8 hPa ENE 5.1 km/h 18.2 km/h 76 % 0 mm
10:00 -15.7 °C -18 °C 33866.8 hPa East 5.1 km/h 20.8 km/h 74 % 0 mm
10:15 -15.4 °C -17.9 °C 33866.8 hPa NNE 5.1 km/h 23.3 km/h 73 % 0 mm
10:30 -15.4 °C -18.1 °C 33866.8 hPa East 7.7 km/h 36.2 km/h 71 % 0 mm
11:00 -15.2 °C -18 °C 33866.8 hPa SE 2.6 km/h 20.8 km/h 70 % 0 mm
11:15 -15.2 °C -17.8 °C 33856.6 hPa ENE 2.6 km/h 20.8 km/h 72 % 0 mm
11:30 -15.2 °C -17.9 °C 33856.6 hPa ENE 2.6 km/h 20.8 km/h 71 % 0 mm
11:45 -15.1 °C -18 °C 33856.6 hPa ESE 5.1 km/h 18.2 km/h 69 % 0 mm
12:00 -15 °C -18.1 °C 33856.6 hPa NE 5.1 km/h 31.1 km/h 67 % 0 mm
12:15 -14.9 °C -18.1 °C 33843.1 hPa NE 7.7 km/h 25.9 km/h 67 % 0 mm
12:30 -15.1 °C -18.1 °C 33843.1 hPa ESE 5.1 km/h 31.1 km/h 68 % 0 mm
12:45 -15.2 °C -17.9 °C 33843.1 hPa East 5.1 km/h 41.4 km/h 71 % 0 mm
13:00 -15.6 °C -17.4 °C 33856.6 hPa SE 5.1 km/h 20.8 km/h 79 % 0 mm
13:15 -16 °C -17.3 °C 33856.6 hPa ESE 5.1 km/h 23.3 km/h 85 % 0 mm
13:30 -16.3 °C -17.2 °C 33856.6 hPa ESE 5.1 km/h 28.5 km/h 89 % 7.62 mm
13:45 -16.4 °C -17.2 °C 33856.6 hPa ESE 2.6 km/h 18.2 km/h 91 % 12.7 mm
14:00 -16.5 °C -17.2 °C 33856.6 hPa North 2.6 km/h 12.9 km/h 92 % 20.32 mm
14:15 -16.6 °C -17.2 °C 33856.6 hPa SSE 2.6 km/h 12.9 km/h 93 % 25.4 mm
14:30 -16.6 °C -17.1 °C 33856.6 hPa Calm   12.9 km/h 94 % 25.4 mm
14:45 -16.7 °C -17.2 °C 33843.1 hPa NE 2.6 km/h 15.6 km/h 94 % 20.32 mm
15:00 -16.6 °C -17 °C 33843.1 hPa NNE 2.6 km/h 20.8 km/h 95 % 12.7 mm
15:15 -16.5 °C -16.9 °C 33843.1 hPa NE 2.6 km/h 18.2 km/h 95 % 12.7 mm
15:30 -16.3 °C -16.8 °C 33843.1 hPa SE 2.6 km/h 18.2 km/h 95 % 7.62 mm
15:45 -16.4 °C -16.8 °C 33843.1 hPa SE 2.6 km/h 18.2 km/h 95 % 7.62 mm
16:00 -16.2 °C -16.6 °C 33843.1 hPa ESE 2.6 km/h 15.6 km/h 95 % 0 mm
16:15 -16.2 °C -16.7 °C 33843.1 hPa SSE 2.6 km/h 15.6 km/h 94 % 0 mm
16:30 -15.9 °C -16.4 °C 33843.1 hPa SE 2.6 km/h 15.6 km/h 94 % 0 mm
16:45 -15.6 °C -16.3 °C 33832.9 hPa ESE 5.1 km/h 23.3 km/h 91 % 0 mm
17:00 -15.7 °C -16.4 °C 33843.1 hPa ESE 2.6 km/h 18.2 km/h 91 % 0 mm
17:30 -16.8 °C -17.5 °C 33843.1 hPa SSE 2.6 km/h 15.6 km/h 91 % 0 mm
17:45 -16.9 °C -17.5 °C 33856.6 hPa Calm   7.7 km/h 93 % 0 mm
18:00 -16.9 °C -17.4 °C 33843.1 hPa Calm   12.9 km/h 94 % 0 mm
18:15 -16.6 °C -16.9 °C 33843.1 hPa ESE 2.6 km/h 10.3 km/h 96 % 7.62 mm
18:30 -16.3 °C -16.7 °C 33856.6 hPa NNE 2.6 km/h 15.6 km/h 95 % 12.7 mm
18:45 -16.5 °C -17.1 °C 33856.6 hPa SSE 2.6 km/h 15.6 km/h 93 % 12.7 mm
19:00 -16.9 °C -17.5 °C 33866.8 hPa ENE 2.6 km/h 12.9 km/h 93 % 12.7 mm
19:15 -17.3 °C -17.7 °C 33856.6 hPa NW 2.6 km/h 10.3 km/h 94 % 7.62 mm
19:30 -17.3 °C -17.8 °C 33856.6 hPa Calm     94 % 0 mm
19:45 -17.3 °C -17.7 °C 33856.6 hPa Calm     95 % 0 mm
20:00 -17.3 °C -17.7 °C 33866.8 hPa WSW 2.6 km/h 12.9 km/h 95 % 7.62 mm
20:15 -17.3 °C -17.7 °C 33880.3 hPa Calm   7.7 km/h 95 % 7.62 mm
20:30 -17.4 °C -17.8 °C 33866.8 hPa Calm     95 % 7.62 mm
20:45 -17.5 °C -17.9 °C 33866.8 hPa Calm     95 % 7.62 mm
21:00 -17.6 °C -17.9 °C 33856.6 hPa Calm     95 % 0 mm
21:15 -17.6 °C -17.8 °C 33856.6 hPa Calm     96 % 0 mm
21:30 -17.6 °C -17.8 °C 33843.1 hPa Calm     96 % 0 mm
21:45 -17.6 °C -17.8 °C 33856.6 hPa Calm     96 % 0 mm
22:00 -17.6 °C -17.8 °C 33856.6 hPa Calm     96 % 0 mm
22:15 -17.6 °C -17.9 °C 33843.1 hPa Calm     96 % 0 mm
22:30 -17.6 °C -17.9 °C 33832.9 hPa Calm     96 % 0 mm
22:45 -17.6 °C -17.9 °C 33832.9 hPa Calm     96 % 0 mm
23:00 -17.6 °C -17.9 °C 33832.9 hPa Calm     96 % 0 mm
23:15 -17.6 °C -17.9 °C 33822.8 hPa Calm     96 % 0 mm
23:30 -17.6 °C -17.9 °C 33822.8 hPa Calm     96 % 0 mm
23:45 -17.6 °C -17.9 °C 33822.8 hPa Calm     96 % 0 mm
Esan sääasema
Terveisin Weather Underground - 2.75 mb

Alkuperäinen skripti  Jim McMurry - jmcmurry@mwt.net Sovitettu myös templatelle  Wim van der Kuil - Leuven-Template.eu

Laitteet joita käytämme:

Sääasema
Davis VP2

Sääasemaohjelma
Cumulus

Sääaseman tietokone
Asus EeePC

Palveluntarjoaja
Suncomet

Davis VP2

Cumulus

Asus EeePC

Suncomet